createdAt,value
2024-02-02T00:01:35.127Z,101980.44
2024-02-02T00:04:05.610Z,101982.03
2024-02-02T00:06:36.201Z,101983.78
2024-02-02T00:09:07.832Z,101978.69
2024-02-02T00:11:38.747Z,101983.00
2024-02-02T00:14:11.980Z,101975.06
2024-02-02T00:16:42.703Z,101973.97
2024-02-02T00:19:13.362Z,101975.72
2024-02-02T00:21:43.896Z,101974.72
2024-02-02T00:24:14.331Z,101975.72
2024-02-02T00:26:44.762Z,101972.81
2024-02-02T00:29:18.564Z,101963.88
2024-02-02T00:31:49.044Z,101964.75
2024-02-02T00:34:19.712Z,101964.63
2024-02-02T00:36:50.277Z,101954.00
2024-02-02T00:39:20.666Z,101950.13
2024-02-02T00:41:51.103Z,101947.56
2024-02-02T00:44:24.096Z,101948.50
2024-02-02T00:46:54.664Z,101938.72
2024-02-02T00:49:26.072Z,101934.22
2024-02-02T00:51:56.607Z,101929.03
2024-02-02T00:54:27.102Z,101931.94
2024-02-02T00:56:57.640Z,101931.41
2024-02-02T00:59:30.678Z,101926.34
2024-02-02T01:02:01.072Z,101924.72
2024-02-02T01:04:31.730Z,101921.72
2024-02-02T01:07:02.283Z,101913.19
2024-02-02T01:09:32.895Z,101919.75
2024-02-02T01:12:03.680Z,101900.47
2024-02-02T01:14:37.140Z,101898.22
2024-02-02T01:17:08.385Z,101900.47
2024-02-02T01:19:39.903Z,101897.97
2024-02-02T01:22:10.706Z,101884.88
2024-02-02T01:24:41.177Z,101881.53
2024-02-02T01:27:11.605Z,101877.28
2024-02-02T01:29:44.620Z,101873.00
2024-02-02T01:32:15.034Z,101873.19
2024-02-02T01:34:45.569Z,101870.75
2024-02-02T01:37:16.016Z,101864.63
2024-02-02T01:39:46.457Z,101869.75
2024-02-02T01:42:16.984Z,101868.06
2024-02-02T01:44:51.180Z,101861.50
2024-02-02T01:47:21.691Z,101854.41
2024-02-02T01:49:52.507Z,101849.03
2024-02-02T01:52:22.922Z,101857.09
2024-02-02T01:54:53.500Z,101840.22
2024-02-02T01:57:24.981Z,101833.16
2024-02-02T01:59:58.277Z,101829.81
2024-02-02T02:02:28.903Z,101827.22
2024-02-02T02:04:59.360Z,101834.53
2024-02-02T02:07:30.920Z,101823.97
2024-02-02T02:10:01.476Z,101813.47
2024-02-02T02:12:32.072Z,101817.09
2024-02-02T02:15:05.562Z,101804.66
2024-02-02T02:17:36.046Z,101812.72
2024-02-02T02:20:11.837Z,101802.94
2024-02-02T02:22:44.891Z,101795.63
2024-02-02T02:25:15.297Z,101794.59
2024-02-02T02:27:45.673Z,101784.72
2024-02-02T02:30:17.898Z,101794.94
2024-02-02T02:32:48.722Z,101789.66
2024-02-02T02:35:19.246Z,101792.91
2024-02-02T02:37:52.269Z,101781.75
2024-02-02T02:40:22.648Z,101790.34
2024-02-02T02:42:54.549Z,101792.50
2024-02-02T02:45:25.710Z,101789.41
2024-02-02T02:47:56.284Z,101783.72
2024-02-02T02:50:26.767Z,101792.53
2024-02-02T02:52:59.759Z,101784.34
2024-02-02T02:55:30.141Z,101791.34
2024-02-02T02:58:00.528Z,101790.38
2024-02-02T03:00:33.009Z,101799.19
2024-02-02T03:03:03.808Z,101802.75
2024-02-02T03:05:35.250Z,101803.03
2024-02-02T03:08:09.289Z,101806.47
2024-02-02T03:10:39.868Z,101807.56
2024-02-02T03:13:10.634Z,101809.50
2024-02-02T03:15:41.780Z,101802.09
2024-02-02T03:18:13.991Z,101810.16
2024-02-02T03:20:44.633Z,101803.69
2024-02-02T03:23:17.669Z,101800.91
2024-02-02T03:25:48.107Z,101791.66
2024-02-02T03:28:18.500Z,101791.56
2024-02-02T03:30:48.860Z,101788.44
2024-02-02T03:33:19.357Z,101797.91
2024-02-02T03:35:49.867Z,101795.75
2024-02-02T03:38:22.911Z,101786.50
2024-02-02T03:40:53.279Z,101795.97
2024-02-02T03:43:23.663Z,101789.50
2024-02-02T03:45:54.048Z,101793.19
2024-02-02T03:48:24.523Z,101784.13
2024-02-02T03:50:55.043Z,101778.75
2024-02-02T03:53:28.116Z,101784.03
2024-02-02T03:55:59.648Z,101775.13
2024-02-02T03:58:30.052Z,101762.44
2024-02-02T04:01:00.677Z,101767.59
2024-02-02T04:03:33.746Z,101765.88
2024-02-02T04:06:04.455Z,101753.19
2024-02-02T04:08:37.521Z,101749.75
2024-02-02T04:11:09.466Z,101759.53
2024-02-02T04:13:40.380Z,101757.81
2024-02-02T04:16:11.000Z,101749.00
2024-02-02T04:18:41.493Z,101752.66
2024-02-02T04:21:11.949Z,101741.03
2024-02-02T04:23:44.944Z,101737.59
2024-02-02T04:26:15.386Z,101734.06
2024-02-02T04:28:45.836Z,101729.66
2024-02-02T04:31:16.372Z,101732.97
2024-02-02T04:33:46.856Z,101723.84
2024-02-02T04:36:17.445Z,101727.19
2024-02-02T04:38:50.529Z,101726.09
2024-02-02T04:41:20.977Z,101723.19
2024-02-02T04:43:51.472Z,101733.81
2024-02-02T04:46:21.869Z,101729.19
2024-02-02T04:48:52.381Z,101732.75
2024-02-02T04:51:22.946Z,101734.44
2024-02-02T04:53:56.058Z,101726.38
2024-02-02T04:56:26.570Z,101732.75
2024-02-02T04:58:57.094Z,101723.94
2024-02-02T05:01:27.490Z,101722.22
2024-02-02T05:03:57.916Z,101729.53
2024-02-02T05:06:28.442Z,101716.28
2024-02-02T05:09:01.520Z,101711.91
2024-02-02T05:11:31.944Z,101715.34
2024-02-02T05:14:02.330Z,101717.28
2024-02-02T05:16:32.680Z,101724.50
2024-02-02T05:19:03.159Z,101718.25
2024-02-02T05:21:34.073Z,101712.13
2024-02-02T05:24:20.523Z,101711.28
2024-02-02T05:26:58.485Z,101713.97
2024-02-02T05:29:29.019Z,101706.63
2024-02-02T05:31:59.398Z,101706.53
2024-02-02T05:34:29.970Z,101702.00
2024-02-02T05:37:01.979Z,101701.16
2024-02-02T05:39:35.096Z,101700.50
2024-02-02T05:42:05.940Z,101695.84
2024-02-02T05:44:36.356Z,101696.94
2024-02-02T05:47:06.800Z,101698.56
2024-02-02T05:49:37.281Z,101704.56
2024-02-02T05:52:08.508Z,101709.59
2024-02-02T05:54:41.560Z,101701.06
2024-02-02T05:57:12.012Z,101695.91
2024-02-02T05:59:42.435Z,101695.19
2024-02-02T06:02:12.854Z,101693.28
2024-02-02T06:04:43.258Z,101692.59
2024-02-02T06:07:13.802Z,101702.78
2024-02-02T06:09:46.980Z,101698.97
2024-02-02T06:12:17.649Z,101711.47
2024-02-02T06:14:48.084Z,101708.72
2024-02-02T06:17:18.460Z,101715.72
2024-02-02T06:19:48.951Z,101706.69
2024-02-02T06:22:22.554Z,101716.75
2024-02-02T06:24:55.550Z,101723.97
2024-02-02T06:27:28.527Z,101728.88
2024-02-02T06:29:59.048Z,101740.03
2024-02-02T06:32:29.472Z,101741.88
2024-02-02T06:35:01.070Z,101737.09
2024-02-02T06:37:31.579Z,101743.72
2024-02-02T06:40:05.734Z,101742.59
2024-02-02T06:42:36.374Z,101738.56
2024-02-02T06:45:07.893Z,101732.44
2024-02-02T06:47:38.811Z,101720.28
2024-02-02T06:50:09.889Z,101718.84
2024-02-02T06:52:40.686Z,101715.41
2024-02-02T06:55:14.027Z,101713.91
2024-02-02T06:57:46.483Z,101707.66
2024-02-02T07:00:20.681Z,101710.75
2024-02-02T07:02:51.577Z,101712.72
2024-02-02T07:05:23.550Z,101710.59
2024-02-02T07:07:54.231Z,101705.81
2024-02-02T07:10:27.313Z,101705.72
2024-02-02T07:13:01.467Z,101695.53
2024-02-02T07:15:35.517Z,101687.31
2024-02-02T07:18:07.552Z,101688.78
2024-02-02T07:21:08.756Z,101699.34
2024-02-02T07:23:42.941Z,101706.69
2024-02-02T07:26:30.013Z,101708.78
2024-02-02T07:29:02.170Z,101701.94
2024-02-02T07:31:42.253Z,101714.91
2024-02-02T07:34:44.317Z,101720.31
2024-02-02T07:37:42.957Z,101718.97
2024-02-02T07:41:08.398Z,101708.41
2024-02-02T07:43:41.409Z,101716.38
2024-02-02T07:46:15.427Z,101704.97
2024-02-02T07:48:48.559Z,101706.72
2024-02-02T07:51:20.791Z,101708.69
2024-02-02T07:53:51.277Z,101702.16
2024-02-02T07:56:24.014Z,101716.75
2024-02-02T07:59:00.358Z,101707.31
2024-02-02T08:01:34.674Z,101728.00
2024-02-02T08:04:05.523Z,101737.81
2024-02-02T08:06:36.289Z,101732.56
2024-02-02T08:09:10.646Z,101739.41
2024-02-02T08:11:41.280Z,101740.25
2024-02-02T08:14:14.361Z,101740.25
2024-02-02T08:16:44.756Z,101733.78
2024-02-02T08:19:15.295Z,101729.00
2024-02-02T08:21:45.731Z,101731.59
2024-02-02T08:24:16.193Z,101718.34
2024-02-02T08:26:46.611Z,101722.50
2024-02-02T08:29:19.894Z,101719.81
2024-02-02T08:31:50.325Z,101735.75
2024-02-02T08:34:20.834Z,101729.22
2024-02-02T08:36:51.383Z,101721.13
2024-02-02T08:39:22.039Z,101718.22
2024-02-02T08:41:52.575Z,101715.25
2024-02-02T08:44:32.268Z,101722.09
2024-02-02T08:47:02.699Z,101714.50
2024-02-02T08:49:55.035Z,101711.56
2024-02-02T08:52:32.488Z,101717.16
2024-02-02T08:55:04.683Z,101725.75
2024-02-02T08:58:03.066Z,101724.00
2024-02-02T09:00:43.866Z,101716.25
2024-02-02T09:03:45.904Z,101713.16
2024-02-02T09:06:44.750Z,101723.59
2024-02-02T09:09:19.345Z,101719.78
2024-02-02T09:11:53.171Z,101719.53
2024-02-02T09:14:24.898Z,101704.78
2024-02-02T09:16:59.225Z,101713.59
2024-02-02T09:19:29.450Z,101712.63
2024-02-02T09:22:02.927Z,101722.69
2024-02-02T09:24:52.626Z,101712.88
2024-02-02T09:27:37.551Z,101717.28
2024-02-02T09:30:15.660Z,101714.72
2024-02-02T09:32:48.806Z,101715.81
2024-02-02T09:35:54.364Z,101707.72
2024-02-02T09:38:24.844Z,101710.44
2024-02-02T09:41:34.618Z,101709.22
2024-02-02T09:44:25.258Z,101714.03
2024-02-02T09:47:04.716Z,101699.69
2024-02-02T09:49:53.554Z,101698.09
2024-02-02T09:52:41.117Z,101701.66
2024-02-02T09:55:19.272Z,101707.16
2024-02-02T09:57:59.492Z,101707.03
2024-02-02T10:00:43.793Z,101718.13
2024-02-02T10:03:27.366Z,101714.53
2024-02-02T10:06:20.737Z,101715.41
2024-02-02T10:09:11.439Z,101717.34
2024-02-02T10:12:12.870Z,101719.09
2024-02-02T10:15:23.614Z,101722.63
2024-02-02T10:18:19.524Z,101721.53
2024-02-02T10:20:56.334Z,101718.56
2024-02-02T10:23:54.226Z,101715.13
2024-02-02T10:26:48.448Z,101696.97
2024-02-02T10:29:29.440Z,101705.56
2024-02-02T10:32:19.729Z,101707.00
2024-02-02T10:35:18.648Z,101712.88
2024-02-02T10:37:53.652Z,101701.69
2024-02-02T10:40:36.876Z,101702.41
2024-02-02T10:43:38.579Z,101705.72
2024-02-02T10:46:26.054Z,101705.47
2024-02-02T10:49:21.880Z,101697.22
2024-02-02T10:52:06.626Z,101696.09
2024-02-02T10:54:54.586Z,101696.09
2024-02-02T10:57:35.650Z,101693.16
2024-02-02T11:00:14.814Z,101690.16
2024-02-02T11:03:09.177Z,101690.66
2024-02-02T11:05:45.650Z,101693.69
2024-02-02T11:08:21.568Z,101702.09
2024-02-02T11:11:02.506Z,101698.03
2024-02-02T11:13:48.225Z,101698.63
2024-02-02T11:16:45.428Z,101701.28
2024-02-02T11:19:27.528Z,101692.50
2024-02-02T11:22:17.534Z,101682.44
2024-02-02T11:25:08.338Z,101690.22
2024-02-02T11:27:51.878Z,101690.84
2024-02-02T11:30:45.488Z,101705.81
2024-02-02T11:33:36.455Z,101709.59
2024-02-02T11:36:26.026Z,101722.16
2024-02-02T11:39:12.763Z,101732.19
2024-02-02T11:41:45.969Z,101734.50
2024-02-02T11:44:18.670Z,101738.75
2024-02-02T11:46:53.773Z,101736.19
2024-02-02T11:49:27.733Z,101719.66
2024-02-02T11:52:08.544Z,101727.91
2024-02-02T11:54:45.225Z,101712.22
2024-02-02T11:57:23.174Z,101708.22
2024-02-02T11:59:56.705Z,101718.66
2024-02-02T12:03:00.628Z,101705.56
2024-02-02T12:05:44.013Z,101700.84
2024-02-02T12:08:27.208Z,101690.56
2024-02-02T12:11:00.376Z,101689.13
2024-02-02T12:13:34.560Z,101704.22
2024-02-02T12:16:05.828Z,101689.38
2024-02-02T12:18:39.206Z,101682.84
2024-02-02T12:21:16.932Z,101695.81
2024-02-02T12:23:48.828Z,101695.66
2024-02-02T12:26:21.597Z,101699.97
2024-02-02T12:28:53.463Z,101698.53
2024-02-02T12:31:24.029Z,101703.38
2024-02-02T12:33:57.264Z,101710.47
2024-02-02T12:36:28.393Z,101709.91
2024-02-02T12:39:02.252Z,101697.91
2024-02-02T12:41:32.692Z,101709.31
2024-02-02T12:44:03.171Z,101702.72
2024-02-02T12:46:34.996Z,101698.56
2024-02-02T12:49:08.235Z,101707.28
2024-02-02T12:51:38.801Z,101709.56
2024-02-02T12:54:10.434Z,101697.53
2024-02-02T12:56:41.606Z,101695.94
2024-02-02T12:59:19.941Z,101692.63
2024-02-02T13:01:50.830Z,101680.59
2024-02-02T13:04:24.132Z,101681.03
2024-02-02T13:06:54.890Z,101675.44
2024-02-02T13:09:31.046Z,101678.88
2024-02-02T13:12:02.981Z,101677.69
2024-02-02T13:14:37.383Z,101670.53
2024-02-02T13:17:13.911Z,101672.94
2024-02-02T13:19:49.499Z,101662.78
2024-02-02T13:22:28.035Z,101662.16
2024-02-02T13:25:01.069Z,101655.13
2024-02-02T13:27:32.846Z,101651.78
2024-02-02T13:30:05.372Z,101648.59
2024-02-02T13:32:36.223Z,101658.47
2024-02-02T13:35:10.653Z,101651.56
2024-02-02T13:37:44.572Z,101646.41
2024-02-02T13:40:15.965Z,101641.53
2024-02-02T13:42:47.429Z,101629.13
2024-02-02T13:45:19.467Z,101627.97
2024-02-02T13:48:01.939Z,101611.38
2024-02-02T13:50:52.280Z,101616.25
2024-02-02T13:53:26.207Z,101625.25
2024-02-02T13:55:57.418Z,101637.97
2024-02-02T13:58:27.848Z,101623.72
2024-02-02T14:00:58.314Z,101619.28
2024-02-02T14:03:29.604Z,101621.53
2024-02-02T14:06:03.990Z,101623.31
2024-02-02T14:08:45.152Z,101631.63
2024-02-02T14:11:25.960Z,101620.41
2024-02-02T14:13:57.075Z,101615.31
2024-02-02T14:16:29.577Z,101622.16
2024-02-02T14:19:04.367Z,101623.88
2024-02-02T14:21:39.111Z,101606.16
2024-02-02T14:24:12.991Z,101619.19
2024-02-02T14:26:53.472Z,101612.53
2024-02-02T14:29:25.830Z,101619.97
2024-02-02T14:31:57.980Z,101606.72
2024-02-02T14:34:29.865Z,101618.91
2024-02-02T14:37:04.718Z,101610.06
2024-02-02T14:39:35.166Z,101606.94
2024-02-02T14:42:07.817Z,101601.81
2024-02-02T14:44:39.563Z,101616.72
2024-02-02T14:47:13.471Z,101603.44
2024-02-02T14:49:43.976Z,101620.59
2024-02-02T14:52:17.346Z,101618.72
2024-02-02T14:54:48.414Z,101610.88
2024-02-02T14:57:20.501Z,101613.94
2024-02-02T14:59:52.991Z,101619.34
2024-02-02T15:02:24.410Z,101606.78
2024-02-02T15:04:57.975Z,101611.50
2024-02-02T15:07:33.619Z,101615.94
2024-02-02T15:10:04.265Z,101619.94
2024-02-02T15:12:34.924Z,101615.84
2024-02-02T15:15:05.541Z,101616.25
2024-02-02T15:17:36.092Z,101614.84
2024-02-02T15:20:11.850Z,101626.00
2024-02-02T15:22:45.011Z,101625.69
2024-02-02T15:25:15.550Z,101626.00
2024-02-02T15:27:45.982Z,101624.13
2024-02-02T15:30:18.070Z,101611.72
2024-02-02T15:32:48.724Z,101619.31
2024-02-02T15:35:19.401Z,101624.59
2024-02-02T15:37:52.477Z,101621.03
2024-02-02T15:40:22.937Z,101623.59
2024-02-02T15:42:53.476Z,101608.59
2024-02-02T15:45:24.469Z,101613.34
2024-02-02T15:47:54.964Z,101606.91
2024-02-02T15:50:25.377Z,101607.91
2024-02-02T15:53:00.189Z,101594.19
2024-02-02T15:55:31.966Z,101600.31
2024-02-02T15:58:02.520Z,101605.19
2024-02-02T16:00:32.952Z,101592.31
2024-02-02T16:03:03.589Z,101604.91
2024-02-02T16:05:34.004Z,101602.19
2024-02-02T16:08:07.468Z,101605.19
2024-02-02T16:10:37.847Z,101605.91
2024-02-02T16:13:08.620Z,101607.63
2024-02-02T16:15:39.090Z,101604.19
2024-02-02T16:18:10.584Z,101603.50
2024-02-02T16:20:41.050Z,101605.19
2024-02-02T16:23:14.076Z,101596.75
2024-02-02T16:25:44.428Z,101605.53
2024-02-02T16:28:14.840Z,101604.91
2024-02-02T16:30:45.283Z,101606.22
2024-02-02T16:33:15.807Z,101612.03
2024-02-02T16:35:46.243Z,101612.34
2024-02-02T16:38:19.335Z,101621.63
2024-02-02T16:40:49.745Z,101618.06
2024-02-02T16:43:20.178Z,101614.22
2024-02-02T16:45:50.953Z,101618.38
2024-02-02T16:48:22.605Z,101620.91
2024-02-02T16:50:55.063Z,101624.94
2024-02-02T16:53:28.709Z,101624.03
2024-02-02T16:55:59.101Z,101626.72
2024-02-02T16:58:29.486Z,101625.91
2024-02-02T17:01:01.080Z,101613.06
2024-02-02T17:03:31.573Z,101623.91
2024-02-02T17:06:02.035Z,101615.06
2024-02-02T17:08:35.402Z,101623.91
2024-02-02T17:11:10.549Z,101620.47
2024-02-02T17:13:41.100Z,101626.94
2024-02-02T17:16:11.731Z,101626.06
2024-02-02T17:18:43.241Z,101626.22
2024-02-02T17:21:13.676Z,101626.06
2024-02-02T17:23:46.729Z,101627.63
2024-02-02T17:26:18.197Z,101637.47
2024-02-02T17:28:50.401Z,101633.28
2024-02-02T17:31:22.567Z,101634.47
2024-02-02T17:33:53.074Z,101637.03
2024-02-02T17:36:23.510Z,101646.28
2024-02-02T17:38:56.606Z,101643.59
2024-02-02T17:41:26.987Z,101642.19
2024-02-02T17:43:58.067Z,101643.91
2024-02-02T17:46:28.445Z,101638.16
2024-02-02T17:48:58.929Z,101636.75
2024-02-02T17:51:29.499Z,101634.38
2024-02-02T17:54:02.655Z,101638.75
2024-02-02T17:56:33.156Z,101635.25
2024-02-02T17:59:06.006Z,101639.81
2024-02-02T18:01:37.558Z,101632.00
2024-02-02T18:04:08.386Z,101634.44
2024-02-02T18:06:39.110Z,101617.47
2024-02-02T18:09:13.077Z,101626.03
2024-02-02T18:11:43.531Z,101615.25
2024-02-02T18:14:16.215Z,101612.13
2024-02-02T18:16:46.601Z,101610.97
2024-02-02T18:19:17.175Z,101605.13
2024-02-02T18:21:47.745Z,101603.56
2024-02-02T18:24:20.909Z,101600.16
2024-02-02T18:26:51.340Z,101587.63
2024-02-02T18:29:21.819Z,101601.47
2024-02-02T18:31:52.305Z,101594.63
2024-02-02T18:34:22.802Z,101608.47
2024-02-02T18:36:53.359Z,101607.59
2024-02-02T18:39:26.442Z,101617.59
2024-02-02T18:41:56.883Z,101620.72
2024-02-02T18:44:27.274Z,101624.97
2024-02-02T18:46:57.664Z,101627.69
2024-02-02T18:49:28.066Z,101620.44
2024-02-02T18:51:58.532Z,101624.72
2024-02-02T18:54:31.608Z,101616.28
2024-02-02T18:57:02.029Z,101623.31
2024-02-02T18:59:32.455Z,101621.44
2024-02-02T19:02:02.891Z,101624.56
2024-02-02T19:04:33.405Z,101624.75
2024-02-02T19:07:04.057Z,101619.88
2024-02-02T19:09:37.107Z,101614.59
2024-02-02T19:12:08.940Z,101612.19
2024-02-02T19:14:40.245Z,101608.91
2024-02-02T19:17:10.637Z,101607.78
2024-02-02T19:19:41.120Z,101600.53
2024-02-02T19:22:11.675Z,101605.94
2024-02-02T19:24:47.627Z,101600.34
2024-02-02T19:27:18.150Z,101616.31
2024-02-02T19:29:48.576Z,101609.03
2024-02-02T19:32:19.113Z,101602.78
2024-02-02T19:34:49.591Z,101604.50
2024-02-02T19:37:20.072Z,101602.50
2024-02-02T19:39:53.147Z,101612.03
2024-02-02T19:42:23.689Z,101601.91
2024-02-02T19:44:54.302Z,101599.78
2024-02-02T19:47:24.685Z,101609.78
2024-02-02T19:49:55.214Z,101605.34
2024-02-02T19:52:25.693Z,101607.91
2024-02-02T19:54:58.706Z,101614.44
2024-02-02T19:57:29.087Z,101607.06
2024-02-02T19:59:59.523Z,101617.59
2024-02-02T20:02:30.730Z,101614.44
2024-02-02T20:05:01.118Z,101606.75
2024-02-02T20:07:31.672Z,101602.19
2024-02-02T20:10:04.746Z,101602.34
2024-02-02T20:12:35.180Z,101590.81
2024-02-02T20:15:05.869Z,101594.50
2024-02-02T20:17:36.290Z,101601.91
2024-02-02T20:20:08.869Z,101601.91
2024-02-02T20:22:39.237Z,101605.78
2024-02-02T20:25:13.081Z,101596.91
2024-02-02T20:27:43.537Z,101597.22
2024-02-02T20:30:17.152Z,101586.53
2024-02-02T20:32:47.626Z,101587.66
2024-02-02T20:35:18.438Z,101588.22
2024-02-02T20:37:48.847Z,101580.78
2024-02-02T20:40:21.967Z,101588.75
2024-02-02T20:42:52.485Z,101591.88
2024-02-02T20:45:24.025Z,101590.59
2024-02-02T20:47:54.437Z,101599.28
2024-02-02T20:50:24.835Z,101599.88
2024-02-02T20:52:55.268Z,101609.22
2024-02-02T20:55:28.270Z,101596.28
2024-02-02T20:58:02.525Z,101597.31
2024-02-02T21:00:33.586Z,101607.69
2024-02-02T21:03:05.378Z,101609.56
2024-02-02T21:05:36.065Z,101610.53
2024-02-02T21:08:06.626Z,101603.66
2024-02-02T21:10:40.851Z,101610.09
2024-02-02T21:13:11.227Z,101611.66
2024-02-02T21:15:44.218Z,101616.38
2024-02-02T21:18:16.404Z,101609.56
2024-02-02T21:20:51.326Z,101606.13
2024-02-02T21:23:21.885Z,101602.53
2024-02-02T21:25:56.977Z,101610.09
2024-02-02T21:28:27.039Z,101608.94
2024-02-02T21:30:59.627Z,101604.56
2024-02-02T21:33:30.688Z,101611.84
2024-02-02T21:36:04.121Z,101610.16
2024-02-02T21:38:34.995Z,101610.44
2024-02-02T21:41:08.396Z,101613.84
2024-02-02T21:43:38.887Z,101614.69
2024-02-02T21:46:09.417Z,101612.13
2024-02-02T21:48:39.958Z,101607.97
2024-02-02T21:51:11.392Z,101602.97
2024-02-02T21:53:41.799Z,101600.13
2024-02-02T21:56:14.822Z,101599.13
2024-02-02T21:58:45.254Z,101606.25
2024-02-02T22:01:15.964Z,101591.16
2024-02-02T22:03:46.479Z,101600.41
2024-02-02T22:06:17.793Z,101612.41
2024-02-02T22:08:48.442Z,101612.53
2024-02-02T22:11:23.000Z,101615.94
2024-02-02T22:13:53.494Z,101616.38
2024-02-02T22:16:24.418Z,101614.66
2024-02-02T22:18:54.865Z,101602.69
2024-02-02T22:21:26.962Z,101586.88
2024-02-02T22:23:57.410Z,101595.16
2024-02-02T22:26:30.419Z,101586.31
2024-02-02T22:29:02.141Z,101585.59
2024-02-02T22:31:32.734Z,101582.00
2024-02-02T22:34:03.286Z,101575.88
2024-02-02T22:36:34.486Z,101579.03
2024-02-02T22:39:04.994Z,101579.31
2024-02-02T22:41:38.104Z,101578.47
2024-02-02T22:44:08.568Z,101577.91
2024-02-02T22:46:39.507Z,101579.22
2024-02-02T22:49:09.995Z,101568.25
2024-02-02T22:51:48.425Z,101564.69
2024-02-02T22:54:19.251Z,101571.69
2024-02-02T22:56:52.341Z,101571.25
2024-02-02T22:59:22.744Z,101568.69
2024-02-02T23:01:53.290Z,101565.41
2024-02-02T23:04:24.146Z,101563.72
2024-02-02T23:06:54.708Z,101560.44
2024-02-02T23:09:25.158Z,101560.59
2024-02-02T23:11:58.867Z,101560.16
2024-02-02T23:14:29.290Z,101567.13
2024-02-02T23:16:59.673Z,101564.88
2024-02-02T23:19:30.110Z,101565.00
2024-02-02T23:22:00.609Z,101566.59
2024-02-02T23:24:31.020Z,101564.75
2024-02-02T23:27:04.174Z,101565.59
2024-02-02T23:29:34.622Z,101566.28
2024-02-02T23:32:05.137Z,101569.84
2024-02-02T23:34:36.047Z,101568.03
2024-02-02T23:37:06.766Z,101553.19
2024-02-02T23:39:37.284Z,101553.78
2024-02-02T23:42:10.924Z,101565.03
2024-02-02T23:44:41.684Z,101562.06
2024-02-02T23:47:12.126Z,101551.22
2024-02-02T23:49:42.812Z,101551.34
2024-02-02T23:52:13.489Z,101549.22
2024-02-02T23:54:44.223Z,101549.81
2024-02-02T23:57:22.163Z,101553.94
2024-02-02T23:59:52.808Z,101553.22
